createdAt,value
2018-03-29T00:00:45.534Z,2.97
2018-03-29T00:03:13.072Z,3.03
2018-03-29T00:05:40.635Z,3.43
2018-03-29T00:08:08.150Z,4.77
2018-03-29T00:10:35.647Z,3.77
2018-03-29T00:13:03.183Z,3.90
2018-03-29T00:15:30.684Z,3.03
2018-03-29T00:17:58.209Z,2.50
2018-03-29T00:20:25.768Z,2.40
2018-03-29T00:22:53.307Z,2.43
2018-03-29T00:25:20.829Z,2.80
2018-03-29T00:27:48.360Z,2.77
2018-03-29T00:30:15.926Z,2.40
2018-03-29T00:32:43.428Z,2.30
2018-03-29T00:35:11.780Z,1.70
2018-03-29T00:37:39.360Z,1.83
2018-03-29T00:40:07.630Z,1.90
2018-03-29T00:42:35.944Z,1.90
2018-03-29T00:45:03.475Z,2.70
2018-03-29T00:47:30.984Z,3.70
2018-03-29T00:49:58.500Z,3.30
2018-03-29T00:52:26.017Z,3.13
2018-03-29T00:54:53.520Z,3.13
2018-03-29T00:57:21.019Z,3.20
2018-03-29T00:59:48.591Z,3.00
2018-03-29T01:02:16.459Z,3.30
2018-03-29T01:04:43.960Z,2.23
2018-03-29T01:07:11.490Z,2.50
2018-03-29T01:09:39.104Z,2.50
2018-03-29T01:12:06.621Z,2.10
2018-03-29T01:14:34.905Z,2.00
2018-03-29T01:17:02.425Z,2.33
2018-03-29T01:19:30.016Z,2.37
2018-03-29T01:22:02.443Z,3.00
2018-03-29T01:24:29.980Z,2.70
2018-03-29T01:26:57.481Z,2.87
2018-03-29T01:29:24.995Z,2.43
2018-03-29T01:31:52.524Z,2.10
2018-03-29T01:34:20.051Z,2.00
2018-03-29T01:36:47.618Z,2.47
2018-03-29T01:39:15.923Z,1.90
2018-03-29T01:41:43.443Z,2.30
2018-03-29T01:44:10.995Z,2.10
2018-03-29T01:46:38.528Z,2.27
2018-03-29T01:49:06.046Z,2.03
2018-03-29T01:51:33.590Z,2.10
2018-03-29T01:54:01.853Z,1.93
2018-03-29T01:56:29.399Z,2.47
2018-03-29T01:58:56.912Z,2.30
2018-03-29T02:01:25.351Z,2.30
2018-03-29T02:03:53.117Z,2.63
2018-03-29T02:06:20.658Z,3.00
2018-03-29T02:08:48.287Z,3.00
2018-03-29T02:11:15.805Z,2.70
2018-03-29T02:13:43.352Z,2.80
2018-03-29T02:16:10.882Z,2.00
2018-03-29T02:18:38.392Z,1.30
2018-03-29T02:21:05.904Z,0.80
2018-03-29T02:23:33.444Z,0.70
2018-03-29T02:26:00.955Z,0.70
2018-03-29T02:28:28.480Z,0.80
2018-03-29T02:30:56.027Z,0.80
2018-03-29T02:33:23.537Z,0.63
2018-03-29T02:35:51.789Z,0.80
2018-03-29T02:38:19.316Z,0.60
2018-03-29T02:40:46.854Z,0.70
2018-03-29T02:43:14.381Z,0.80
2018-03-29T02:45:41.937Z,0.60
2018-03-29T02:48:10.217Z,0.60
2018-03-29T02:50:38.516Z,0.67
2018-03-29T02:55:59.063Z,0.60
2018-03-29T02:58:26.632Z,0.50
2018-03-29T03:00:54.209Z,0.60
2018-03-29T03:03:21.733Z,0.70
2018-03-29T03:05:49.337Z,0.60
2018-03-29T03:08:16.860Z,0.50
2018-03-29T03:10:44.367Z,0.53
2018-03-29T03:13:12.163Z,0.60
2018-03-29T03:15:39.671Z,0.67
2018-03-29T03:18:07.180Z,0.50
2018-03-29T03:20:34.687Z,0.50
2018-03-29T03:23:03.179Z,0.57
2018-03-29T03:25:31.480Z,0.50
2018-03-29T03:27:59.004Z,0.50
2018-03-29T03:30:27.327Z,0.40
2018-03-29T03:36:02.148Z,0.50
2018-03-29T03:38:29.682Z,0.60
2018-03-29T03:40:57.974Z,0.40
2018-03-29T03:43:25.521Z,0.50
2018-03-29T03:45:53.045Z,0.40
2018-03-29T03:48:20.560Z,0.50
2018-03-29T03:50:48.091Z,0.70
2018-03-29T03:53:15.604Z,0.60
2018-03-29T03:55:43.196Z,0.43
2018-03-29T03:58:10.763Z,0.80
2018-03-29T04:00:38.291Z,0.80
2018-03-29T04:03:05.833Z,0.67
2018-03-29T04:05:33.370Z,0.77
2018-03-29T04:08:00.896Z,0.50
2018-03-29T04:10:28.418Z,0.43
2018-03-29T04:12:55.944Z,0.50
2018-03-29T04:15:23.480Z,0.60
2018-03-29T04:17:51.012Z,0.60
2018-03-29T04:20:18.540Z,0.60
2018-03-29T04:22:46.067Z,0.77
2018-03-29T04:25:13.642Z,1.40
2018-03-29T04:27:41.188Z,0.90
2018-03-29T04:30:09.492Z,0.80
2018-03-29T04:32:36.995Z,0.60
2018-03-29T04:35:04.525Z,0.90
2018-03-29T04:37:32.067Z,1.40
2018-03-29T04:39:59.563Z,1.77
2018-03-29T04:42:27.056Z,1.30
2018-03-29T04:44:55.337Z,2.23
2018-03-29T04:47:22.875Z,4.17
2018-03-29T04:49:51.180Z,2.33
2018-03-29T04:52:18.715Z,5.73
2018-03-29T04:54:47.024Z,4.90
2018-03-29T04:57:14.596Z,1.40
2018-03-29T04:59:42.079Z,1.40
2018-03-29T05:02:19.479Z,1.40
2018-03-29T05:04:47.008Z,6.20
2018-03-29T05:07:14.520Z,2.93
2018-03-29T05:09:42.841Z,3.00
2018-03-29T05:12:24.603Z,1.37
2018-03-29T05:17:33.929Z,2.67
2018-03-29T05:20:01.484Z,1.90
2018-03-29T05:22:38.734Z,2.00
2018-03-29T05:25:06.256Z,1.63
2018-03-29T05:27:33.776Z,2.40
2018-03-29T05:30:02.063Z,2.00
2018-03-29T05:32:29.652Z,1.20
2018-03-29T05:34:57.192Z,1.20
2018-03-29T05:37:24.748Z,1.30
2018-03-29T05:39:53.039Z,1.50
2018-03-29T05:42:20.556Z,1.40
2018-03-29T05:44:48.088Z,1.57
2018-03-29T05:47:15.620Z,1.60
2018-03-29T05:49:43.172Z,1.43
2018-03-29T05:52:10.718Z,1.70
2018-03-29T05:54:38.277Z,1.60
2018-03-29T05:57:05.839Z,1.87
2018-03-29T05:59:34.193Z,1.60
2018-03-29T06:02:01.917Z,1.43
2018-03-29T06:04:29.488Z,1.60
2018-03-29T06:06:57.068Z,1.70
2018-03-29T06:09:24.604Z,2.53
2018-03-29T06:11:57.168Z,3.87
2018-03-29T06:14:24.720Z,2.53
2018-03-29T06:16:52.263Z,3.40
2018-03-29T06:19:19.809Z,2.67
2018-03-29T06:21:57.149Z,2.53
2018-03-29T06:24:24.731Z,3.00
2018-03-29T06:26:52.312Z,1.70
2018-03-29T06:29:19.901Z,1.93
2018-03-29T06:31:47.437Z,2.20
2018-03-29T06:34:15.017Z,1.67
2018-03-29T06:36:42.546Z,1.20
2018-03-29T06:39:10.100Z,1.17
2018-03-29T06:41:37.676Z,1.20
2018-03-29T06:44:05.276Z,1.00
2018-03-29T06:46:32.875Z,1.00
2018-03-29T06:49:00.572Z,1.30
2018-03-29T06:51:28.165Z,1.20
2018-03-29T06:53:55.723Z,2.03
2018-03-29T06:56:23.272Z,2.20
2018-03-29T06:58:51.047Z,2.03
2018-03-29T07:01:18.647Z,1.60
2018-03-29T07:03:47.011Z,1.20
2018-03-29T07:06:14.672Z,1.30
2018-03-29T07:08:42.996Z,1.50
2018-03-29T07:11:10.553Z,0.87
2018-03-29T07:13:38.317Z,0.80
2018-03-29T07:16:05.873Z,0.77
2018-03-29T07:18:33.401Z,1.03
2018-03-29T07:21:00.984Z,1.10
2018-03-29T07:23:28.532Z,1.00
2018-03-29T07:25:56.045Z,0.80
2018-03-29T07:28:23.700Z,0.83
2018-03-29T07:30:51.223Z,1.00
2018-03-29T07:33:18.800Z,0.87
2018-03-29T07:35:46.360Z,1.00
2018-03-29T07:38:13.950Z,1.10
2018-03-29T07:40:42.289Z,0.80
2018-03-29T07:43:09.931Z,0.73
2018-03-29T07:45:37.533Z,0.97
2018-03-29T07:48:05.056Z,0.83
2018-03-29T07:50:33.771Z,0.90
2018-03-29T07:53:20.404Z,1.20
2018-03-29T07:55:48.148Z,1.10
2018-03-29T07:58:15.687Z,1.10
2018-03-29T08:00:43.285Z,1.00
2018-03-29T08:03:11.588Z,1.03
2018-03-29T08:05:39.191Z,0.80
2018-03-29T08:08:06.699Z,0.80
2018-03-29T08:10:34.260Z,1.00
2018-03-29T08:13:01.801Z,0.90
2018-03-29T08:15:29.393Z,1.07
2018-03-29T08:17:56.964Z,0.80
2018-03-29T08:20:24.584Z,0.93
2018-03-29T08:22:52.108Z,1.37
2018-03-29T08:25:19.709Z,1.30
2018-03-29T08:27:47.310Z,1.40
2018-03-29T08:30:14.857Z,1.13
2018-03-29T08:32:43.032Z,1.20
2018-03-29T08:35:11.384Z,1.20
2018-03-29T08:37:38.979Z,1.40
2018-03-29T08:40:06.581Z,1.20
2018-03-29T08:42:34.456Z,1.20
2018-03-29T08:45:02.088Z,1.17
2018-03-29T08:47:29.635Z,1.00
2018-03-29T08:49:57.175Z,1.20
2018-03-29T08:55:41.488Z,1.23
2018-03-29T08:58:09.810Z,1.10
2018-03-29T09:00:37.357Z,2.30
2018-03-29T09:03:05.225Z,1.30
2018-03-29T09:05:33.482Z,1.00
2018-03-29T09:08:01.101Z,1.10
2018-03-29T09:10:28.720Z,1.20
2018-03-29T09:12:56.314Z,1.00
2018-03-29T09:15:23.976Z,0.67
2018-03-29T09:17:51.657Z,0.70
2018-03-29T09:20:19.256Z,0.60
2018-03-29T09:22:46.861Z,0.90
2018-03-29T09:25:14.444Z,0.70
2018-03-29T09:27:41.977Z,0.90
2018-03-29T09:30:09.586Z,0.97
2018-03-29T09:32:37.202Z,0.87
2018-03-29T09:35:04.749Z,0.87
2018-03-29T09:37:32.380Z,1.10
2018-03-29T09:40:00.036Z,0.90
2018-03-29T09:42:37.238Z,1.10
2018-03-29T09:45:04.760Z,0.90
2018-03-29T09:47:33.035Z,0.80
2018-03-29T09:50:00.680Z,0.87
2018-03-29T09:52:28.325Z,0.90
2018-03-29T09:54:55.917Z,1.07
2018-03-29T09:57:23.511Z,0.90
2018-03-29T09:59:51.078Z,0.90
2018-03-29T10:02:18.745Z,1.00
2018-03-29T10:04:51.969Z,1.00
2018-03-29T10:07:24.492Z,1.00
2018-03-29T10:09:52.156Z,1.03
2018-03-29T10:12:19.744Z,1.00
2018-03-29T10:14:47.372Z,1.00
2018-03-29T10:17:14.998Z,0.80
2018-03-29T10:19:42.613Z,1.00
2018-03-29T10:22:10.239Z,0.90
2018-03-29T10:24:37.858Z,0.97
2018-03-29T10:27:05.503Z,0.90
2018-03-29T10:29:33.089Z,0.80
2018-03-29T10:32:00.696Z,1.00
2018-03-29T10:34:28.313Z,1.00
2018-03-29T10:36:55.918Z,0.90
2018-03-29T10:39:23.522Z,1.20
2018-03-29T10:41:51.096Z,0.70
2018-03-29T10:44:18.665Z,1.40
2018-03-29T10:46:46.232Z,0.90
2018-03-29T10:49:13.837Z,0.90
2018-03-29T10:51:41.442Z,0.80
2018-03-29T10:54:09.213Z,1.43
2018-03-29T10:56:36.820Z,0.97
2018-03-29T10:59:04.393Z,0.83
2018-03-29T11:01:32.093Z,1.00
2018-03-29T11:03:59.681Z,0.70
2018-03-29T11:06:27.274Z,0.80
2018-03-29T11:08:54.875Z,1.20
2018-03-29T11:11:22.619Z,1.10
2018-03-29T11:13:50.999Z,1.00
2018-03-29T11:16:18.605Z,1.00
2018-03-29T11:18:46.234Z,1.03
2018-03-29T11:21:13.821Z,1.00
2018-03-29T11:23:41.437Z,1.00
2018-03-29T11:26:09.777Z,1.20
2018-03-29T11:28:37.382Z,1.20
2018-03-29T11:31:04.946Z,1.03
2018-03-29T11:33:52.072Z,1.10
2018-03-29T11:36:19.667Z,1.10
2018-03-29T11:38:47.289Z,1.17
2018-03-29T11:41:15.710Z,0.90
2018-03-29T11:43:43.297Z,0.90
2018-03-29T11:46:10.903Z,0.80
2018-03-29T11:48:38.505Z,0.90
2018-03-29T11:51:06.138Z,0.90
2018-03-29T11:53:34.195Z,0.90
2018-03-29T11:56:01.788Z,0.97
2018-03-29T11:58:29.390Z,0.97
2018-03-29T12:00:57.266Z,1.27
2018-03-29T12:03:25.672Z,1.10
2018-03-29T12:05:54.731Z,1.00
2018-03-29T12:08:22.522Z,1.20
2018-03-29T12:10:50.099Z,1.50
2018-03-29T12:13:17.700Z,1.40
2018-03-29T12:15:46.019Z,1.20
2018-03-29T12:18:13.660Z,1.00
2018-03-29T12:20:41.328Z,1.30
2018-03-29T12:23:08.827Z,0.70
2018-03-29T12:25:36.444Z,1.00
2018-03-29T12:28:03.960Z,0.70
2018-03-29T12:30:31.493Z,0.83
2018-03-29T12:33:18.319Z,0.90
2018-03-29T12:35:45.916Z,0.80
2018-03-29T12:38:13.467Z,0.90
2018-03-29T12:40:41.838Z,0.90
2018-03-29T12:43:09.407Z,0.90
2018-03-29T12:45:36.947Z,1.00
2018-03-29T12:48:05.299Z,0.80
2018-03-29T12:50:32.836Z,1.00
2018-03-29T12:53:06.294Z,1.40
2018-03-29T12:55:41.362Z,0.77
2018-03-29T12:58:12.470Z,1.20
2018-03-29T13:00:40.007Z,0.97
2018-03-29T13:03:07.556Z,2.97
2018-03-29T13:05:35.128Z,2.40
2018-03-29T13:08:02.660Z,6.30
2018-03-29T13:10:30.264Z,5.10
2018-03-29T13:12:58.587Z,4.30
2018-03-29T13:15:26.143Z,1.23
2018-03-29T13:17:53.662Z,9.27
2018-03-29T13:20:21.231Z,2.80
2018-03-29T13:22:48.762Z,1.50
2018-03-29T13:25:17.082Z,1.50
2018-03-29T13:27:44.665Z,1.20
2018-03-29T13:30:12.217Z,0.70
2018-03-29T13:32:39.749Z,0.70
2018-03-29T13:35:08.131Z,0.90
2018-03-29T13:37:36.500Z,0.80
2018-03-29T13:40:04.076Z,0.70
2018-03-29T13:42:31.728Z,0.80
2018-03-29T13:44:59.323Z,0.70
2018-03-29T13:47:26.846Z,0.80
2018-03-29T13:49:54.409Z,0.70
2018-03-29T13:52:36.243Z,0.60
2018-03-29T13:55:03.964Z,0.70
2018-03-29T13:57:31.562Z,0.70
2018-03-29T13:59:59.372Z,1.00
2018-03-29T14:02:27.108Z,1.13
2018-03-29T14:04:55.444Z,0.90
2018-03-29T14:07:23.065Z,1.20
2018-03-29T14:09:50.648Z,1.00
2018-03-29T14:12:18.280Z,0.80
2018-03-29T14:14:45.850Z,0.80
2018-03-29T14:17:13.436Z,1.00
2018-03-29T14:19:41.000Z,1.00
2018-03-29T14:22:08.540Z,0.80
2018-03-29T14:24:36.150Z,0.97
2018-03-29T14:27:03.712Z,0.97
2018-03-29T14:29:31.272Z,0.90
2018-03-29T14:31:59.668Z,0.90
2018-03-29T14:34:27.223Z,1.17
2018-03-29T14:36:54.801Z,0.97
2018-03-29T14:39:22.416Z,1.30
2018-03-29T14:41:49.951Z,1.40
2018-03-29T14:44:17.705Z,1.23
2018-03-29T14:46:45.339Z,1.30
2018-03-29T14:49:12.875Z,0.80
2018-03-29T14:51:40.479Z,0.87
2018-03-29T14:54:08.804Z,0.83
2018-03-29T14:56:36.383Z,0.83
2018-03-29T14:59:04.701Z,0.80
2018-03-29T15:01:32.236Z,0.93
2018-03-29T15:03:59.781Z,1.00
2018-03-29T15:06:27.319Z,0.90
2018-03-29T15:08:55.048Z,1.13
2018-03-29T15:11:27.816Z,1.00
2018-03-29T15:13:55.422Z,0.70
2018-03-29T15:16:22.901Z,0.90
2018-03-29T15:18:50.492Z,1.00
2018-03-29T15:21:18.016Z,0.93
2018-03-29T15:23:46.313Z,1.03
2018-03-29T15:26:13.830Z,1.20
2018-03-29T15:28:42.160Z,1.30
2018-03-29T15:31:09.707Z,1.20
2018-03-29T15:33:37.355Z,0.80
2018-03-29T15:36:04.961Z,1.10
2018-03-29T15:38:32.532Z,0.90
2018-03-29T15:41:00.120Z,0.70
2018-03-29T15:43:28.051Z,0.87
2018-03-29T15:45:55.599Z,0.63
2018-03-29T15:48:23.193Z,1.00
2018-03-29T15:50:50.826Z,0.87
2018-03-29T15:53:18.561Z,1.00
2018-03-29T15:55:46.140Z,0.70
2018-03-29T15:58:13.708Z,0.80
2018-03-29T16:00:41.241Z,1.10
2018-03-29T16:03:08.779Z,0.90
2018-03-29T16:05:36.291Z,0.90
2018-03-29T16:08:03.859Z,0.93
2018-03-29T16:10:31.370Z,1.37
2018-03-29T16:13:04.104Z,1.20
2018-03-29T16:15:32.400Z,0.97
2018-03-29T16:17:59.961Z,1.10
2018-03-29T16:20:38.162Z,0.80
2018-03-29T16:23:05.850Z,0.60
2018-03-29T16:25:34.137Z,0.60
2018-03-29T16:28:01.750Z,0.67
2018-03-29T16:30:29.740Z,0.50
2018-03-29T16:32:57.314Z,0.47
2018-03-29T16:35:24.884Z,0.53
2018-03-29T16:37:52.433Z,0.63
2018-03-29T16:40:20.021Z,0.87
2018-03-29T16:42:47.655Z,0.50
2018-03-29T16:45:15.241Z,0.90
2018-03-29T16:47:42.781Z,0.93
2018-03-29T16:50:10.329Z,1.00
2018-03-29T16:52:47.555Z,0.73
2018-03-29T16:55:15.116Z,1.10
2018-03-29T16:57:42.632Z,0.57
2018-03-29T17:00:10.201Z,0.93
2018-03-29T17:02:37.808Z,0.90
2018-03-29T17:05:06.118Z,0.70
2018-03-29T17:07:33.631Z,0.80
2018-03-29T17:10:02.015Z,0.90
2018-03-29T17:12:30.292Z,0.83
2018-03-29T17:14:57.803Z,0.60
2018-03-29T17:17:25.331Z,0.70
2018-03-29T17:19:52.842Z,1.00
2018-03-29T17:22:20.396Z,0.90
2018-03-29T17:24:47.936Z,0.90
2018-03-29T17:27:15.476Z,1.27
2018-03-29T17:29:43.008Z,1.00
2018-03-29T17:32:10.588Z,1.40
2018-03-29T17:34:38.185Z,0.87
2018-03-29T17:37:05.724Z,0.93
2018-03-29T17:39:33.241Z,1.93
2018-03-29T17:42:01.521Z,1.37
2018-03-29T17:44:29.791Z,1.17
2018-03-29T17:46:58.088Z,1.00
2018-03-29T17:49:25.601Z,1.10
2018-03-29T17:51:53.131Z,0.90
2018-03-29T17:54:20.689Z,1.00
2018-03-29T17:56:48.194Z,1.17
2018-03-29T17:59:15.789Z,1.00
2018-03-29T18:01:43.352Z,1.00
2018-03-29T18:04:11.612Z,0.93
2018-03-29T18:06:39.137Z,1.10
2018-03-29T18:09:06.739Z,1.20
2018-03-29T18:11:43.955Z,1.17
2018-03-29T18:14:11.460Z,1.10
2018-03-29T18:16:38.992Z,0.90
2018-03-29T18:19:06.512Z,1.30
2018-03-29T18:21:34.440Z,1.17
2018-03-29T18:24:01.964Z,1.10
2018-03-29T18:26:29.496Z,2.20
2018-03-29T18:28:57.102Z,2.30
2018-03-29T18:31:25.430Z,2.00
2018-03-29T18:33:52.913Z,1.10
2018-03-29T18:36:20.453Z,1.00
2018-03-29T18:38:47.975Z,1.40
2018-03-29T18:41:15.530Z,1.20
2018-03-29T18:43:48.972Z,1.27
2018-03-29T18:46:16.489Z,1.67
2018-03-29T18:48:43.995Z,1.57
2018-03-29T18:51:11.544Z,1.30
2018-03-29T18:53:39.048Z,1.80
2018-03-29T18:56:06.572Z,1.30
2018-03-29T18:58:34.123Z,1.47
2018-03-29T19:01:01.639Z,1.33
2018-03-29T19:03:29.156Z,1.23
2018-03-29T19:05:56.677Z,1.30
2018-03-29T19:08:24.196Z,1.33
2018-03-29T19:10:52.475Z,1.30
2018-03-29T19:13:20.769Z,1.70
2018-03-29T19:15:48.337Z,1.47
2018-03-29T19:18:15.868Z,1.40
2018-03-29T19:20:43.454Z,1.57
2018-03-29T19:23:10.981Z,1.13
2018-03-29T19:25:39.231Z,1.47
2018-03-29T19:28:06.768Z,2.10
2018-03-29T19:30:34.309Z,1.80
2018-03-29T19:33:01.796Z,2.30
2018-03-29T19:35:29.323Z,2.10
2018-03-29T19:37:56.818Z,1.90
2018-03-29T19:40:24.380Z,1.80
2018-03-29T19:42:51.957Z,2.03
2018-03-29T19:45:20.247Z,1.80
2018-03-29T19:47:47.748Z,2.10
2018-03-29T19:50:15.320Z,1.87
2018-03-29T19:52:42.961Z,2.17
2018-03-29T19:55:11.207Z,1.90
2018-03-29T19:57:38.738Z,1.40
2018-03-29T20:00:06.246Z,3.27
2018-03-29T20:02:53.270Z,1.40
2018-03-29T20:05:21.317Z,2.00
2018-03-29T20:07:48.800Z,2.00
2018-03-29T20:10:16.310Z,1.40
2018-03-29T20:12:44.608Z,0.90
2018-03-29T20:15:12.149Z,1.20
2018-03-29T20:17:39.691Z,1.20
2018-03-29T20:20:07.198Z,1.10
2018-03-29T20:22:34.752Z,1.20
2018-03-29T20:25:02.257Z,1.30
2018-03-29T20:27:29.757Z,1.40
2018-03-29T20:29:57.304Z,1.10
2018-03-29T20:32:24.811Z,0.90
2018-03-29T20:34:52.312Z,1.17
2018-03-29T20:37:19.860Z,1.70
2018-03-29T20:39:47.357Z,1.40
2018-03-29T20:42:14.939Z,1.27
2018-03-29T20:44:42.475Z,1.20
2018-03-29T20:47:10.063Z,1.80
2018-03-29T20:49:37.552Z,1.80
2018-03-29T20:52:20.268Z,1.90
2018-03-29T20:54:47.764Z,0.90
2018-03-29T20:57:16.068Z,0.87
2018-03-29T20:59:43.604Z,0.80
2018-03-29T21:02:11.334Z,0.80
2018-03-29T21:04:38.852Z,0.93
2018-03-29T21:07:06.348Z,0.90
2018-03-29T21:09:34.712Z,0.90
2018-03-29T21:12:03.041Z,1.10
2018-03-29T21:14:30.591Z,1.13
2018-03-29T21:16:58.156Z,1.37
2018-03-29T21:19:25.696Z,1.33
2018-03-29T21:21:53.246Z,1.53
2018-03-29T21:24:20.784Z,1.80
2018-03-29T21:26:49.065Z,1.80
2018-03-29T21:29:16.596Z,2.20
2018-03-29T21:31:44.156Z,1.50
2018-03-29T21:34:11.728Z,1.77
2018-03-29T21:36:39.662Z,1.90
2018-03-29T21:39:07.916Z,1.23
2018-03-29T21:41:35.477Z,0.90
2018-03-29T21:44:02.973Z,1.20
2018-03-29T21:46:30.555Z,1.30
2018-03-29T21:48:58.862Z,1.20
2018-03-29T21:51:26.415Z,1.63
2018-03-29T21:53:53.967Z,1.40
2018-03-29T21:56:21.493Z,1.17
2018-03-29T21:58:49.055Z,1.20
2018-03-29T22:01:16.674Z,1.57
2018-03-29T22:03:44.160Z,1.20
2018-03-29T22:06:11.752Z,1.20
2018-03-29T22:08:39.307Z,1.10
2018-03-29T22:11:06.852Z,1.40
2018-03-29T22:13:52.351Z,1.30
2018-03-29T22:16:19.912Z,1.43
2018-03-29T22:18:47.412Z,1.60
2018-03-29T22:21:14.973Z,1.90
2018-03-29T22:23:42.527Z,1.80
2018-03-29T22:26:10.066Z,2.00
2018-03-29T22:28:37.596Z,1.53
2018-03-29T22:31:05.912Z,1.40
2018-03-29T22:33:33.455Z,1.63
2018-03-29T22:36:00.989Z,2.00
2018-03-29T22:38:29.272Z,1.93
2018-03-29T22:40:57.540Z,1.60
2018-03-29T22:43:25.100Z,1.60
2018-03-29T22:45:53.405Z,1.50
2018-03-29T22:48:20.914Z,1.57
2018-03-29T22:50:48.442Z,1.20
2018-03-29T22:53:15.944Z,1.40
2018-03-29T22:55:43.496Z,1.63
2018-03-29T22:58:11.028Z,1.80
2018-03-29T23:00:38.538Z,1.50
2018-03-29T23:03:06.060Z,1.60
2018-03-29T23:05:33.567Z,1.43
2018-03-29T23:08:01.125Z,1.47
2018-03-29T23:10:28.632Z,1.50
2018-03-29T23:12:56.152Z,1.30
2018-03-29T23:15:23.716Z,1.77
2018-03-29T23:17:51.319Z,1.83
2018-03-29T23:20:18.843Z,1.97
2018-03-29T23:22:46.340Z,1.70
2018-03-29T23:25:13.895Z,2.03
2018-03-29T23:27:42.188Z,2.00
2018-03-29T23:30:10.493Z,1.40
2018-03-29T23:32:38.114Z,1.50
2018-03-29T23:35:05.656Z,1.50
2018-03-29T23:37:33.183Z,1.50
2018-03-29T23:40:00.695Z,1.30
2018-03-29T23:42:29.156Z,1.20
2018-03-29T23:44:56.667Z,1.30
2018-03-29T23:47:24.182Z,1.20
2018-03-29T23:49:51.752Z,1.43
2018-03-29T23:52:25.132Z,1.20
2018-03-29T23:54:52.665Z,1.30
2018-03-29T23:57:20.205Z,1.17
2018-03-29T23:59:47.749Z,0.90
